createdAt,value
2022-07-28T00:00:44.538Z,43.49
2022-07-28T00:03:49.002Z,44.13
2022-07-28T00:06:53.105Z,43.50
2022-07-28T00:10:00.608Z,43.39
2022-07-28T00:13:06.902Z,43.84
2022-07-28T00:16:11.282Z,44.03
2022-07-28T00:19:15.158Z,43.25
2022-07-28T00:22:18.927Z,43.13
2022-07-28T00:25:22.684Z,42.78
2022-07-28T00:28:27.022Z,42.88
2022-07-28T00:31:31.243Z,43.40
2022-07-28T00:34:35.792Z,43.31
2022-07-28T00:37:41.042Z,43.54
2022-07-28T00:41:03.979Z,43.15
2022-07-28T00:44:08.115Z,42.75
2022-07-28T00:47:12.024Z,43.22
2022-07-28T00:50:04.171Z,42.88
2022-07-28T00:52:30.630Z,43.32
2022-07-28T00:55:00.900Z,44.07
2022-07-28T00:57:27.398Z,43.82
2022-07-28T00:59:54.101Z,43.07
2022-07-28T01:02:21.119Z,43.36
2022-07-28T01:04:47.882Z,44.11
2022-07-28T01:07:29.452Z,43.71
2022-07-28T01:10:28.479Z,43.90
2022-07-28T01:13:15.960Z,44.36
2022-07-28T01:15:49.620Z,44.63
2022-07-28T01:18:21.182Z,45.35
2022-07-28T01:20:52.776Z,45.26
2022-07-28T01:23:31.267Z,44.58
2022-07-28T01:26:03.822Z,44.54
2022-07-28T01:28:52.593Z,44.42
2022-07-28T01:31:28.035Z,45.40
2022-07-28T01:34:00.649Z,44.65
2022-07-28T01:36:37.161Z,46.30
2022-07-28T01:39:03.807Z,47.19
2022-07-28T01:41:32.191Z,46.97
2022-07-28T01:44:02.878Z,46.53
2022-07-28T01:46:30.366Z,47.70
2022-07-28T01:49:03.336Z,48.27
2022-07-28T01:51:33.413Z,46.49
2022-07-28T01:54:04.981Z,48.11
2022-07-28T01:56:33.328Z,47.15
2022-07-28T01:59:05.443Z,47.34
2022-07-28T02:01:36.689Z,47.21
2022-07-28T02:04:06.015Z,48.62
2022-07-28T02:06:34.854Z,47.50
2022-07-28T02:09:03.704Z,48.91
2022-07-28T02:11:40.108Z,50.05
2022-07-28T02:14:14.649Z,49.13
2022-07-28T02:16:49.629Z,49.16
2022-07-28T02:19:18.327Z,49.77
2022-07-28T02:21:49.808Z,48.84
2022-07-28T02:24:21.707Z,49.68
2022-07-28T02:26:55.552Z,50.90
2022-07-28T02:29:49.276Z,50.28
2022-07-28T02:32:27.759Z,52.09
2022-07-28T02:35:01.770Z,51.09
2022-07-28T02:37:38.098Z,51.23
2022-07-28T02:40:06.437Z,51.29
2022-07-28T02:42:37.932Z,51.51
2022-07-28T02:45:08.592Z,51.72
2022-07-28T02:47:46.728Z,50.76
2022-07-28T02:50:14.980Z,52.13
2022-07-28T02:52:43.177Z,49.75
2022-07-28T02:55:12.243Z,50.02
2022-07-28T02:57:40.813Z,50.12
2022-07-28T03:00:10.431Z,49.80
2022-07-28T03:02:38.574Z,50.00
2022-07-28T03:05:11.325Z,51.33
2022-07-28T03:07:50.847Z,50.23
2022-07-28T03:10:33.815Z,50.17
2022-07-28T03:13:07.111Z,52.56
2022-07-28T03:15:37.600Z,50.79
2022-07-28T03:18:05.171Z,51.07
2022-07-28T03:20:31.814Z,50.21
2022-07-28T03:22:59.089Z,50.30
2022-07-28T03:25:44.563Z,50.51
2022-07-28T03:28:20.238Z,50.92
2022-07-28T03:31:13.923Z,51.04
2022-07-28T03:33:40.765Z,50.98
2022-07-28T03:36:12.174Z,52.33
2022-07-28T03:38:46.065Z,52.72
2022-07-28T03:41:16.916Z,51.97
2022-07-28T03:43:44.704Z,52.31
2022-07-28T03:46:13.692Z,54.07
2022-07-28T03:48:40.368Z,53.31
2022-07-28T03:51:06.991Z,54.05
2022-07-28T03:53:36.183Z,52.58
2022-07-28T03:56:03.366Z,53.32
2022-07-28T03:58:30.915Z,54.97
2022-07-28T04:00:58.297Z,53.05
2022-07-28T04:03:42.805Z,53.59
2022-07-28T04:06:15.237Z,54.75
2022-07-28T04:08:42.756Z,54.88
2022-07-28T04:11:11.479Z,54.46
2022-07-28T04:13:39.036Z,53.75
2022-07-28T04:16:06.982Z,53.97
2022-07-28T04:18:33.734Z,53.08
2022-07-28T04:21:01.865Z,52.87
2022-07-28T04:23:28.387Z,53.44
2022-07-28T04:25:57.117Z,52.42
2022-07-28T04:28:24.275Z,52.55
2022-07-28T04:30:54.014Z,52.98
2022-07-28T04:33:24.785Z,51.97
2022-07-28T04:35:52.857Z,54.10
2022-07-28T04:38:21.684Z,53.21
2022-07-28T04:40:48.711Z,52.75
2022-07-28T04:43:16.725Z,54.50
2022-07-28T04:45:53.730Z,54.14
2022-07-28T04:48:21.448Z,54.15
2022-07-28T04:50:47.882Z,56.71
2022-07-28T04:53:14.295Z,55.49
2022-07-28T04:55:40.811Z,55.48
2022-07-28T04:58:07.722Z,55.23
2022-07-28T05:00:36.056Z,56.53
2022-07-28T05:03:03.621Z,57.36
2022-07-28T05:05:32.376Z,55.44
2022-07-28T05:07:58.838Z,55.30
2022-07-28T05:10:28.757Z,53.26
2022-07-28T05:12:55.174Z,55.17
2022-07-28T05:15:21.648Z,54.93
2022-07-28T05:17:49.644Z,54.42
2022-07-28T05:20:18.423Z,56.13
2022-07-28T05:22:47.426Z,55.63
2022-07-28T05:25:25.414Z,57.08
2022-07-28T05:27:53.451Z,54.12
2022-07-28T05:30:20.573Z,53.66
2022-07-28T05:32:50.377Z,56.33
2022-07-28T05:35:18.955Z,54.89
2022-07-28T05:37:47.792Z,52.87
2022-07-28T05:40:15.367Z,53.29
2022-07-28T05:42:43.246Z,52.76
2022-07-28T05:45:16.368Z,53.77
2022-07-28T05:47:50.265Z,52.52
2022-07-28T05:50:20.840Z,51.49
2022-07-28T05:52:48.327Z,51.76
2022-07-28T05:55:17.863Z,52.75
2022-07-28T05:57:45.056Z,54.59
2022-07-28T06:00:17.318Z,51.27
2022-07-28T06:02:49.295Z,50.64
2022-07-28T06:05:17.709Z,50.86
2022-07-28T06:07:45.238Z,50.38
2022-07-28T06:10:17.612Z,52.55
2022-07-28T06:12:47.655Z,50.77
2022-07-28T06:15:15.939Z,50.91
2022-07-28T06:17:42.932Z,53.25
2022-07-28T06:20:12.590Z,52.09
2022-07-28T06:22:44.605Z,50.71
2022-07-28T06:25:15.816Z,53.22
2022-07-28T06:27:42.734Z,51.93
2022-07-28T06:30:10.127Z,51.48
2022-07-28T06:32:36.646Z,50.81
2022-07-28T06:35:03.606Z,52.76
2022-07-28T06:37:30.046Z,51.08
2022-07-28T06:39:56.547Z,52.24
2022-07-28T06:42:23.689Z,51.42
2022-07-28T06:44:58.961Z,51.38
2022-07-28T06:47:26.756Z,51.83
2022-07-28T06:49:53.164Z,52.59
2022-07-28T06:52:20.782Z,50.44
2022-07-28T06:54:52.330Z,52.57
2022-07-28T06:57:22.921Z,52.81
2022-07-28T06:59:55.141Z,50.69
2022-07-28T07:02:26.375Z,51.83
2022-07-28T07:04:54.723Z,51.93
2022-07-28T07:07:23.439Z,50.61
2022-07-28T07:09:50.043Z,50.88
2022-07-28T07:12:16.460Z,51.27
2022-07-28T07:14:42.954Z,48.01
2022-07-28T07:17:09.419Z,49.88
2022-07-28T07:19:35.807Z,48.25
2022-07-28T07:22:02.903Z,46.10
2022-07-28T07:24:29.327Z,45.22
2022-07-28T07:26:55.995Z,47.19
2022-07-28T07:29:25.491Z,46.82
2022-07-28T07:31:58.484Z,45.21
2022-07-28T07:34:27.877Z,44.90
2022-07-28T07:36:54.319Z,44.98
2022-07-28T07:39:21.078Z,47.42
2022-07-28T07:41:47.591Z,46.64
2022-07-28T07:44:14.444Z,45.56
2022-07-28T07:46:41.311Z,46.07
2022-07-28T07:49:08.153Z,46.46
2022-07-28T07:51:37.674Z,44.27
2022-07-28T07:54:04.203Z,43.35
2022-07-28T07:56:30.712Z,44.21
2022-07-28T07:58:58.641Z,43.52
2022-07-28T08:01:25.196Z,46.91
2022-07-28T08:03:51.744Z,44.14
2022-07-28T08:06:26.493Z,43.08
2022-07-28T08:08:53.746Z,42.63
2022-07-28T08:11:20.164Z,44.18
2022-07-28T08:13:46.614Z,45.43
2022-07-28T08:16:13.077Z,44.87
2022-07-28T08:18:39.627Z,45.40
2022-07-28T08:21:07.446Z,44.05
2022-07-28T08:23:36.362Z,44.73
2022-07-28T08:26:04.112Z,45.40
2022-07-28T08:28:30.644Z,44.72
2022-07-28T08:30:57.122Z,46.25
2022-07-28T08:33:23.731Z,44.06
2022-07-28T08:35:51.429Z,46.26
2022-07-28T08:38:20.762Z,44.18
2022-07-28T08:40:49.746Z,45.25
2022-07-28T08:43:43.533Z,45.17
2022-07-28T08:46:12.520Z,46.08
2022-07-28T08:48:39.271Z,46.05
2022-07-28T08:51:10.311Z,43.64
2022-07-28T08:53:39.043Z,44.50
2022-07-28T08:56:09.548Z,44.51
2022-07-28T08:58:38.127Z,42.91
2022-07-28T09:01:06.911Z,43.53
2022-07-28T09:03:33.648Z,42.26
2022-07-28T09:06:00.644Z,41.83
2022-07-28T09:08:27.334Z,43.10
2022-07-28T09:10:53.804Z,42.74
2022-07-28T09:13:20.617Z,43.14
2022-07-28T09:15:47.750Z,47.80
2022-07-28T09:18:15.767Z,42.83
2022-07-28T09:20:45.232Z,41.33
2022-07-28T09:23:33.552Z,40.97
2022-07-28T09:26:12.047Z,44.09
2022-07-28T09:28:55.951Z,41.58
2022-07-28T09:31:24.198Z,43.26
2022-07-28T09:34:01.051Z,40.30
2022-07-28T09:36:31.792Z,39.50
2022-07-28T09:38:59.091Z,41.49
2022-07-28T09:41:25.643Z,40.91
2022-07-28T09:43:56.098Z,39.83
2022-07-28T09:46:29.966Z,40.75
2022-07-28T09:48:59.461Z,39.92
2022-07-28T09:51:30.977Z,38.30
2022-07-28T09:54:14.317Z,38.95
2022-07-28T09:56:45.962Z,39.00
2022-07-28T09:59:14.489Z,39.10
2022-07-28T10:01:53.232Z,38.13
2022-07-28T10:04:40.544Z,38.50
2022-07-28T10:07:07.217Z,38.37
2022-07-28T10:09:34.195Z,37.44
2022-07-28T10:12:24.329Z,37.05
2022-07-28T10:14:53.059Z,37.33
2022-07-28T10:17:27.611Z,38.46
2022-07-28T10:19:55.140Z,36.02
2022-07-28T10:22:25.235Z,35.72
2022-07-28T10:24:59.949Z,38.64
2022-07-28T10:27:27.098Z,36.65
2022-07-28T10:30:04.733Z,36.60
2022-07-28T10:32:38.163Z,37.19
2022-07-28T10:35:16.759Z,36.39
2022-07-28T10:37:59.675Z,35.08
2022-07-28T10:40:47.035Z,35.71
2022-07-28T10:43:18.390Z,35.36
2022-07-28T10:46:05.067Z,35.03
2022-07-28T10:48:33.146Z,35.40
2022-07-28T10:51:01.246Z,35.45
2022-07-28T10:53:34.254Z,34.86
2022-07-28T10:56:11.376Z,37.04
2022-07-28T10:59:05.045Z,35.20
2022-07-28T11:01:53.837Z,35.02
2022-07-28T11:04:46.103Z,35.36
2022-07-28T11:07:17.177Z,35.72
2022-07-28T11:09:45.626Z,36.16
2022-07-28T11:12:17.485Z,35.53
2022-07-28T11:14:44.813Z,34.92
2022-07-28T11:17:13.658Z,34.74
2022-07-28T11:20:06.879Z,35.12
2022-07-28T11:22:34.739Z,36.20
2022-07-28T11:25:19.880Z,34.30
2022-07-28T11:27:50.730Z,36.14
2022-07-28T11:30:32.106Z,33.71
2022-07-28T11:33:01.026Z,34.94
2022-07-28T11:35:54.573Z,33.57
2022-07-28T11:38:22.748Z,35.42
2022-07-28T11:40:56.370Z,33.33
2022-07-28T11:43:36.803Z,33.43
2022-07-28T11:46:04.757Z,33.45
2022-07-28T11:48:40.339Z,34.18
2022-07-28T11:51:06.874Z,34.35
2022-07-28T11:53:45.989Z,32.69
2022-07-28T11:56:15.054Z,32.55
2022-07-28T11:58:42.770Z,32.50
2022-07-28T12:01:17.325Z,32.40
2022-07-28T12:03:50.097Z,33.97
2022-07-28T12:06:29.221Z,33.16
2022-07-28T12:09:04.766Z,32.79
2022-07-28T12:11:36.866Z,32.52
2022-07-28T12:14:28.971Z,33.12
2022-07-28T12:16:56.205Z,33.04
2022-07-28T12:19:24.254Z,33.32
2022-07-28T12:21:59.779Z,33.40
2022-07-28T12:24:46.102Z,32.73
2022-07-28T12:27:15.265Z,34.29
2022-07-28T12:29:43.855Z,34.10
2022-07-28T12:32:14.450Z,34.33
2022-07-28T12:34:42.269Z,32.96
2022-07-28T12:37:12.321Z,33.10
2022-07-28T12:39:42.103Z,34.29
2022-07-28T12:42:16.823Z,32.82
2022-07-28T12:44:47.393Z,33.88
2022-07-28T12:47:15.491Z,33.52
2022-07-28T12:49:43.346Z,33.12
2022-07-28T12:52:22.697Z,33.96
2022-07-28T12:54:55.090Z,33.57
2022-07-28T12:57:51.648Z,34.46
2022-07-28T13:00:23.931Z,33.05
2022-07-28T13:02:58.287Z,33.98
2022-07-28T13:05:54.053Z,34.67
2022-07-28T13:08:21.496Z,34.07
2022-07-28T13:10:56.657Z,33.90
2022-07-28T13:13:25.374Z,33.34
2022-07-28T13:16:11.944Z,33.27
2022-07-28T13:18:46.731Z,34.51
2022-07-28T13:21:13.476Z,34.53
2022-07-28T13:23:39.904Z,36.38
2022-07-28T13:26:07.640Z,35.19
2022-07-28T13:28:41.247Z,35.13
2022-07-28T13:31:12.437Z,35.51
2022-07-28T13:33:38.849Z,35.20
2022-07-28T13:36:07.846Z,33.03
2022-07-28T13:38:36.635Z,33.44
2022-07-28T13:41:03.181Z,33.32
2022-07-28T13:43:36.199Z,33.24
2022-07-28T13:46:03.429Z,33.76
2022-07-28T13:48:32.777Z,33.24
2022-07-28T13:51:02.304Z,33.70
2022-07-28T13:53:37.062Z,33.63
2022-07-28T13:56:07.624Z,33.26
2022-07-28T13:58:35.073Z,34.65
2022-07-28T14:01:06.027Z,33.02
2022-07-28T14:03:53.563Z,33.77
2022-07-28T14:06:21.971Z,34.54
2022-07-28T14:08:48.827Z,33.55
2022-07-28T14:11:19.247Z,33.27
2022-07-28T14:13:46.213Z,33.36
2022-07-28T14:16:19.506Z,34.80
2022-07-28T14:18:46.811Z,33.13
2022-07-28T14:21:15.987Z,33.07
2022-07-28T14:23:44.030Z,34.13
2022-07-28T14:26:34.494Z,33.32
2022-07-28T14:28:56.972Z,33.56
2022-07-28T14:31:23.511Z,33.88
2022-07-28T14:33:54.425Z,34.46
2022-07-28T14:36:21.967Z,34.61
2022-07-28T14:38:53.566Z,33.37
2022-07-28T14:41:24.850Z,33.41
2022-07-28T14:43:52.253Z,34.27
2022-07-28T14:46:21.711Z,33.46
2022-07-28T14:48:50.015Z,34.10
2022-07-28T14:51:21.631Z,33.79
2022-07-28T14:53:52.187Z,33.69
2022-07-28T14:56:18.921Z,33.79
2022-07-28T14:58:45.341Z,32.64
2022-07-28T15:01:17.371Z,32.92
2022-07-28T15:03:43.917Z,34.02
2022-07-28T15:06:10.775Z,34.34
2022-07-28T15:08:37.550Z,33.57
2022-07-28T15:11:04.138Z,32.74
2022-07-28T15:13:30.629Z,32.66
2022-07-28T15:15:59.700Z,33.68
2022-07-28T15:18:26.333Z,34.11
2022-07-28T15:20:54.600Z,34.50
2022-07-28T15:23:21.058Z,33.27
2022-07-28T15:25:47.549Z,34.19
2022-07-28T15:28:17.721Z,33.34
2022-07-28T15:30:52.654Z,32.90
2022-07-28T15:33:19.728Z,34.41
2022-07-28T15:35:58.387Z,32.74
2022-07-28T15:38:29.429Z,33.68
2022-07-28T15:41:00.607Z,32.58
2022-07-28T15:43:32.852Z,32.64
2022-07-28T15:46:03.485Z,32.97
2022-07-28T15:48:30.108Z,33.32
2022-07-28T15:50:57.019Z,33.37
2022-07-28T15:53:23.616Z,32.63
2022-07-28T15:55:51.621Z,32.43
2022-07-28T15:58:19.239Z,32.84
2022-07-28T16:00:48.013Z,32.98
2022-07-28T16:03:16.882Z,33.17
2022-07-28T16:05:49.511Z,32.43
2022-07-28T16:08:17.867Z,32.58
2022-07-28T16:10:44.997Z,32.43
2022-07-28T16:13:11.865Z,32.98
2022-07-28T16:15:40.955Z,32.82
2022-07-28T16:18:07.490Z,33.21
2022-07-28T16:20:41.850Z,32.74
2022-07-28T16:23:08.325Z,33.29
2022-07-28T16:25:44.578Z,33.70
2022-07-28T16:28:14.120Z,33.15
2022-07-28T16:30:40.541Z,33.08
2022-07-28T16:33:08.241Z,33.56
2022-07-28T16:35:34.730Z,33.19
2022-07-28T16:38:05.010Z,33.19
2022-07-28T16:40:32.667Z,33.12
2022-07-28T16:43:03.387Z,33.39
2022-07-28T16:45:32.863Z,33.67
2022-07-28T16:48:02.935Z,33.04
2022-07-28T16:50:31.695Z,33.37
2022-07-28T16:52:58.386Z,32.83
2022-07-28T16:55:24.867Z,33.08
2022-07-28T16:57:52.721Z,32.45
2022-07-28T17:00:19.435Z,33.24
2022-07-28T17:02:45.871Z,32.87
2022-07-28T17:05:13.043Z,32.68
2022-07-28T17:07:45.858Z,32.66
2022-07-28T17:10:14.299Z,32.52
2022-07-28T17:12:41.245Z,32.50
2022-07-28T17:15:19.561Z,32.80
2022-07-28T17:17:50.734Z,33.49
2022-07-28T17:20:17.517Z,32.67
2022-07-28T17:22:44.809Z,32.29
2022-07-28T17:28:04.793Z,32.48
2022-07-28T17:30:33.014Z,33.40
2022-07-28T17:33:08.442Z,32.98
2022-07-28T17:35:36.054Z,32.66
2022-07-28T17:38:03.870Z,33.29
2022-07-28T17:40:30.512Z,33.05
2022-07-28T17:42:57.951Z,33.31
2022-07-28T17:45:24.588Z,33.75
2022-07-28T17:47:51.681Z,33.84
2022-07-28T17:50:20.739Z,33.49
2022-07-28T17:52:50.619Z,33.04
2022-07-28T17:55:57.917Z,33.91
2022-07-28T17:58:28.619Z,33.34
2022-07-28T18:01:10.811Z,33.51
2022-07-28T18:03:58.905Z,33.29
2022-07-28T18:06:30.833Z,34.68
2022-07-28T18:09:02.807Z,34.16
2022-07-28T18:11:55.938Z,33.89
2022-07-28T18:14:28.517Z,34.16
2022-07-28T18:16:55.790Z,33.84
2022-07-28T18:19:22.339Z,34.03
2022-07-28T18:21:48.898Z,34.27
2022-07-28T18:24:15.563Z,33.84
2022-07-28T18:26:42.366Z,34.23
2022-07-28T18:29:08.957Z,34.45
2022-07-28T18:31:35.514Z,34.42
2022-07-28T18:34:04.622Z,34.32
2022-07-28T18:36:33.707Z,35.06
2022-07-28T18:39:02.749Z,34.68
2022-07-28T18:41:29.870Z,34.58
2022-07-28T18:44:01.449Z,35.42
2022-07-28T18:46:28.006Z,34.30
2022-07-28T18:48:57.058Z,34.59
2022-07-28T18:51:23.936Z,34.12
2022-07-28T18:53:52.951Z,34.37
2022-07-28T18:56:19.343Z,34.48
2022-07-28T18:58:45.828Z,34.51
2022-07-28T19:01:13.488Z,34.10
2022-07-28T19:03:47.240Z,34.03
2022-07-28T19:06:17.468Z,33.73
2022-07-28T19:08:46.084Z,34.02
2022-07-28T19:11:15.114Z,34.62
2022-07-28T19:13:44.701Z,34.25
2022-07-28T19:16:13.632Z,34.33
2022-07-28T19:18:40.481Z,34.00
2022-07-28T19:21:08.018Z,34.33
2022-07-28T19:23:34.439Z,34.72
2022-07-28T19:26:03.877Z,35.03
2022-07-28T19:28:30.447Z,35.60
2022-07-28T19:30:58.533Z,35.34
2022-07-28T19:33:25.826Z,35.40
2022-07-28T19:35:52.314Z,34.81
2022-07-28T19:38:18.800Z,35.08
2022-07-28T19:40:45.287Z,35.42
2022-07-28T19:43:14.201Z,35.10
2022-07-28T19:45:41.051Z,35.20
2022-07-28T19:48:09.842Z,35.14
2022-07-28T19:50:36.857Z,35.49
2022-07-28T19:53:03.737Z,35.19
2022-07-28T19:55:34.957Z,35.32
2022-07-28T19:58:04.568Z,35.14
2022-07-28T20:00:31.028Z,35.13
2022-07-28T20:03:00.102Z,34.64
2022-07-28T20:05:26.711Z,34.51
2022-07-28T20:07:53.134Z,34.37
2022-07-28T20:10:19.582Z,34.24
2022-07-28T20:12:46.139Z,34.31
2022-07-28T20:15:15.176Z,34.20
2022-07-28T20:17:42.778Z,34.65
2022-07-28T20:20:11.996Z,34.93
2022-07-28T20:22:39.462Z,34.97
2022-07-28T20:25:09.274Z,34.59
2022-07-28T20:27:40.048Z,34.68
2022-07-28T20:30:09.189Z,34.88
2022-07-28T20:32:36.854Z,34.66
2022-07-28T20:35:07.495Z,34.56
2022-07-28T20:37:36.928Z,34.59
2022-07-28T20:40:06.197Z,35.22
2022-07-28T20:42:35.778Z,34.95
2022-07-28T20:45:05.172Z,34.83
2022-07-28T20:47:32.750Z,35.11
2022-07-28T20:50:00.466Z,35.56
2022-07-28T20:52:30.150Z,35.49
2022-07-28T20:54:58.893Z,36.02
2022-07-28T20:57:25.308Z,36.30
2022-07-28T20:59:52.127Z,36.31
2022-07-28T21:02:20.162Z,38.00
2022-07-28T21:04:50.315Z,37.36
2022-07-28T21:08:00.153Z,38.33
2022-07-28T21:10:07.107Z,38.99
2022-07-28T21:12:37.166Z,40.23
2022-07-28T21:15:13.418Z,39.26
2022-07-28T21:17:39.920Z,38.11
2022-07-28T21:20:06.881Z,38.18
2022-07-28T21:22:35.342Z,36.16
2022-07-28T21:25:01.870Z,35.32
2022-07-28T21:27:49.200Z,33.75
2022-07-28T21:30:15.873Z,34.14
2022-07-28T21:32:42.299Z,33.68
2022-07-28T21:35:14.165Z,34.25
2022-07-28T21:37:43.972Z,34.30
2022-07-28T21:40:10.892Z,34.44
2022-07-28T21:42:37.396Z,34.47
2022-07-28T21:45:11.135Z,34.41
2022-07-28T21:47:37.835Z,34.56
2022-07-28T21:50:04.633Z,34.87
2022-07-28T21:52:33.314Z,35.14
2022-07-28T21:55:00.876Z,35.11
2022-07-28T21:57:27.771Z,35.29
2022-07-28T21:59:54.316Z,36.49
2022-07-28T22:02:20.809Z,38.72
2022-07-28T22:04:53.389Z,37.57
2022-07-28T22:07:20.254Z,38.16
2022-07-28T22:09:47.789Z,36.77
2022-07-28T22:12:14.266Z,38.53
2022-07-28T22:14:40.878Z,38.88
2022-07-28T22:17:13.491Z,39.12
2022-07-28T22:19:40.069Z,39.38
2022-07-28T22:22:06.569Z,40.00
2022-07-28T22:24:33.134Z,40.01
2022-07-28T22:27:00.263Z,39.54
2022-07-28T22:29:27.977Z,40.21
2022-07-28T22:31:59.554Z,39.40
2022-07-28T22:34:31.321Z,40.29
2022-07-28T22:36:57.655Z,38.67
2022-07-28T22:39:24.340Z,39.28
2022-07-28T22:41:50.726Z,39.44
2022-07-28T22:44:22.095Z,38.30
2022-07-28T22:46:50.273Z,39.30
2022-07-28T22:49:16.887Z,39.20
2022-07-28T22:51:46.407Z,38.61
2022-07-28T22:54:17.815Z,38.11
2022-07-28T22:56:44.864Z,39.21
2022-07-28T22:59:11.519Z,38.46
2022-07-28T23:01:43.061Z,39.70
2022-07-28T23:04:09.507Z,38.81
2022-07-28T23:06:36.102Z,40.34
2022-07-28T23:09:02.624Z,39.77
2022-07-28T23:11:29.188Z,39.89
2022-07-28T23:13:58.968Z,41.45
2022-07-28T23:16:25.534Z,41.02
2022-07-28T23:18:51.958Z,41.69
2022-07-28T23:21:18.425Z,41.98
2022-07-28T23:23:47.956Z,42.62
2022-07-28T23:26:14.389Z,43.07
2022-07-28T23:28:40.862Z,42.57
2022-07-28T23:31:07.417Z,43.93
2022-07-28T23:33:56.065Z,44.35
2022-07-28T23:36:26.790Z,44.08
2022-07-28T23:38:56.382Z,45.04
2022-07-28T23:41:25.617Z,44.43
2022-07-28T23:43:52.509Z,44.75
2022-07-28T23:46:19.044Z,45.46
2022-07-28T23:48:48.032Z,45.30
2022-07-28T23:51:14.534Z,46.69
2022-07-28T23:53:44.114Z,46.98
2022-07-28T23:56:10.824Z,46.69
2022-07-28T23:58:37.689Z,47.43
